Time;durP1;ratioP1;P1;durP2;ratioP2;P2;SDS_P1;SDS_P2;PMS_P1;PMS_P2;Temp;Humidity;BMP_temperature;BMP_pressure;BME280_temperature;BME280_humidity;BME280_pressure;Samples;Min_cycle;Max_cycle;Signal;HPM_P1;HPM_P2
2023/04/23 00:01:38;;;;;;;12.63;5.47;;;13.40;1.00;;;;;;5003396;28;20465;-73
2023/04/23 00:04:07;;;;;;;9.80;5.10;;;13.30;2.90;;;;;;4999219;28;20178;-73
2023/04/23 00:06:33;;;;;;;8.33;4.73;;;13.30;5.30;;;;;;4996312;28;20465;-73
2023/04/23 00:09:00;;;;;;;6.40;4.70;;;13.20;3.00;;;;;;4997031;28;20452;-73
2023/04/23 00:11:26;;;;;;;5.30;4.80;;;13.30;7.20;;;;;;5012110;28;20230;-73
2023/04/23 00:13:52;;;;;;;5.93;5.33;;;13.20;8.30;;;;;;5010407;28;20500;-73
2023/04/23 00:16:19;;;;;;;7.13;5.87;;;13.10;14.90;;;;;;5000706;28;20442;-73
2023/04/23 00:18:45;;;;;;;13.13;5.80;;;13.10;11.90;;;;;;4995470;28;20507;-74
2023/04/23 00:21:11;;;;;;;9.83;6.10;;;13.10;14.80;;;;;;5012460;28;21014;-73
2023/04/23 00:23:38;;;;;;;7.57;5.30;;;13.10;12.80;;;;;;5010108;28;20734;-71
2023/04/23 00:26:03;;;;;;;8.77;6.00;;;13.30;19.20;;;;;;4999921;28;20273;-71
2023/04/23 00:28:29;;;;;;;9.30;5.83;;;13.20;19.90;;;;;;5028981;28;20420;-71
2023/04/23 00:30:54;;;;;;;7.67;5.50;;;13.20;16.80;;;;;;5017310;28;20202;-71
2023/04/23 00:33:20;;;;;;;6.50;5.30;;;13.20;13.80;;;;;;4998467;28;20201;-71
2023/04/23 00:35:45;;;;;;;11.07;5.70;;;13.20;17.10;;;;;;4995645;28;20186;-71
2023/04/23 00:38:11;;;;;;;6.77;5.60;;;13.20;18.40;;;;;;5016043;28;20236;-71
2023/04/23 00:40:36;;;;;;;8.07;5.90;;;13.10;17.20;;;;;;5013679;28;20198;-71
2023/04/23 00:43:02;;;;;;;6.73;5.23;;;13.10;19.50;;;;;;4993316;28;20210;-71
2023/04/23 00:45:28;;;;;;;7.60;5.43;;;13.10;19.20;;;;;;4991149;28;20213;-71
2023/04/23 00:47:55;;;;;;;11.70;6.00;;;13.10;16.80;;;;;;5008547;28;20464;-71
2023/04/23 00:50:20;;;;;;;12.53;6.40;;;13.10;22.80;;;;;;5012849;28;20190;-71
2023/04/23 00:52:46;;;;;;;8.53;6.17;;;13.10;24.80;;;;;;4999580;28;20457;-71
2023/04/23 00:55:12;;;;;;;9.20;5.87;;;13.20;27.60;;;;;;5014856;28;20187;-72
2023/04/23 00:57:38;;;;;;;6.40;5.33;;;13.20;27.00;;;;;;4995768;28;20674;-71
2023/04/23 01:00:06;;;;;;;10.43;6.20;;;13.20;28.10;;;;;;4993859;28;20179;-71
2023/04/23 01:02:32;;;;;;;9.73;6.30;;;13.20;26.50;;;;;;4996147;28;20457;-71
2023/04/23 01:05:00;;;;;;;9.33;5.83;;;13.20;30.70;;;;;;4992877;28;20426;-71
2023/04/23 01:07:26;;;;;;;7.93;5.60;;;13.20;26.80;;;;;;4999014;28;20543;-71
2023/04/23 01:09:52;;;;;;;9.93;6.37;;;13.10;24.00;;;;;;5010133;28;20441;-71
2023/04/23 01:12:18;;;;;;;9.23;6.17;;;13.10;29.30;;;;;;5017180;28;20787;-71
2023/04/23 01:14:44;;;;;;;13.17;6.07;;;13.10;28.50;;;;;;5015042;28;20449;-71
2023/04/23 01:17:13;;;;;;;7.37;6.00;;;13.10;23.50;;;;;;5003123;28;20632;-71
2023/04/23 01:19:39;;;;;;;8.90;6.60;;;13.10;28.40;;;;;;4997686;28;20442;-71
2023/04/23 01:22:12;;;;;;;11.93;6.10;;;13.10;25.30;;;;;;4997717;28;20461;-71
2023/04/23 01:24:39;;;;;;;7.30;6.17;;;13.10;27.10;;;;;;5001869;28;20548;-70
2023/04/23 01:27:06;;;;;;;10.40;6.60;;;13.00;25.20;;;;;;5007888;28;20468;-70
2023/04/23 01:29:32;;;;;;;12.43;6.47;;;12.90;27.80;;;;;;4993522;28;20524;-71
2023/04/23 01:31:58;;;;;;;8.27;6.10;;;13.00;32.90;;;;;;5008827;28;20464;-71
2023/04/23 01:34:24;;;;;;;10.13;6.87;;;13.00;28.40;;;;;;4995676;28;20452;-71
2023/04/23 01:36:50;;;;;;;10.30;7.63;;;12.90;30.10;;;;;;5016393;28;20479;-71
2023/04/23 01:39:16;;;;;;;9.27;7.10;;;13.00;40.30;;;;;;4999869;28;20273;-71
2023/04/23 01:41:42;;;;;;;8.20;6.50;;;13.10;40.40;;;;;;5010157;28;20575;-71
2023/04/23 01:44:09;;;;;;;10.63;7.10;;;13.00;30.00;;;;;;4997035;28;20182;-71
2023/04/23 01:46:35;;;;;;;12.60;7.40;;;12.90;30.60;;;;;;5001412;28;20461;-71
2023/04/23 01:49:01;;;;;;;12.87;6.70;;;12.90;32.40;;;;;;5015174;28;20525;-72
2023/04/23 01:51:29;;;;;;;9.43;7.20;;;12.90;31.70;;;;;;5012471;28;20461;-72
2023/04/23 01:53:55;;;;;;;7.70;6.90;;;12.80;34.90;;;;;;5018469;28;20472;-72
2023/04/23 01:56:25;;;;;;;11.30;6.80;;;12.90;37.30;;;;;;4995748;28;20465;-72
2023/04/23 01:58:51;;;;;;;13.30;7.50;;;12.90;40.30;;;;;;4995853;28;20183;-72
2023/04/23 02:01:17;;;;;;;11.83;7.93;;;12.90;40.20;;;;;;4993287;28;20464;-72
2023/04/23 02:03:43;;;;;;;12.97;7.77;;;12.90;40.30;;;;;;4992343;28;20206;-72
2023/04/23 02:06:09;;;;;;;8.73;6.53;;;12.90;40.30;;;;;;4991880;28;20293;-71
2023/04/23 02:08:35;;;;;;;8.80;6.60;;;12.90;40.30;;;;;;5002249;28;20981;-72
2023/04/23 02:11:00;;;;;;;9.50;6.93;;;12.90;40.30;;;;;;5001790;28;20198;-72
2023/04/23 02:13:26;;;;;;;9.00;6.90;;;12.90;40.40;;;;;;5020061;28;20185;-71
2023/04/23 02:15:51;;;;;;;9.37;6.20;;;12.90;40.30;;;;;;5014548;28;20189;-73
2023/04/23 02:18:17;;;;;;;8.80;6.43;;;12.90;40.30;;;;;;5022323;28;20186;-72
2023/04/23 02:20:42;;;;;;;8.60;6.37;;;12.90;38.20;;;;;;5007212;28;20225;-72
2023/04/23 02:23:09;;;;;;;7.73;6.13;;;12.90;40.30;;;;;;5015731;28;20183;-71
2023/04/23 02:25:37;;;;;;;9.60;5.60;;;12.90;40.30;;;;;;5001451;28;20548;-73
2023/04/23 02:28:05;;;;;;;7.63;5.80;;;12.80;40.20;;;;;;5002826;28;20802;-72
2023/04/23 02:30:32;;;;;;;8.70;5.80;;;12.90;40.30;;;;;;4994504;28;20425;-72
2023/04/23 02:32:57;;;;;;;7.30;6.13;;;12.80;40.20;;;;;;5020687;28;20880;-72
2023/04/23 02:35:23;;;;;;;7.17;5.93;;;12.80;40.00;;;;;;5023240;28;20606;-72
2023/04/23 02:37:49;;;;;;;11.40;5.80;;;12.90;40.40;;;;;;5000489;28;20312;-72
2023/04/23 02:40:15;;;;;;;9.13;5.40;;;12.90;40.30;;;;;;4997211;28;20191;-72
2023/04/23 02:42:40;;;;;;;10.67;6.40;;;12.90;40.30;;;;;;5000356;28;20472;-73
2023/04/23 02:45:06;;;;;;;7.30;5.60;;;12.90;40.30;;;;;;4998237;28;20725;-72
2023/04/23 02:47:32;;;;;;;10.90;6.00;;;12.90;40.30;;;;;;5001194;28;20776;-72
2023/04/23 02:49:58;;;;;;;8.47;5.80;;;12.90;40.30;;;;;;5021272;28;21067;-72
2023/04/23 02:52:23;;;;;;;6.60;5.40;;;12.90;40.30;;;;;;5019107;28;20307;-72
2023/04/23 02:54:49;;;;;;;7.70;5.40;;;12.90;40.50;;;;;;5018178;28;20182;-73
2023/04/23 02:57:15;;;;;;;8.57;5.20;;;12.90;40.30;;;;;;4991696;28;20269;-73
2023/04/23 02:59:42;;;;;;;5.83;5.23;;;12.90;40.30;;;;;;5002739;28;20579;-73
2023/04/23 03:02:07;;;;;;;7.27;5.80;;;12.90;40.40;;;;;;4994440;28;20217;-73
2023/04/23 03:04:33;;;;;;;8.17;5.70;;;12.90;40.50;;;;;;5018661;28;20456;-72
2023/04/23 03:06:58;;;;;;;8.43;5.83;;;12.80;40.20;;;;;;4998995;28;20206;-73
2023/04/23 03:09:24;;;;;;;5.97;5.00;;;12.80;40.30;;;;;;5019483;28;20190;-72
2023/04/23 03:11:49;;;;;;;6.43;5.43;;;12.80;40.20;;;;;;5001680;28;20202;-72
2023/04/23 03:14:15;;;;;;;7.13;4.93;;;12.80;40.40;;;;;;5014107;28;20237;-72
2023/04/23 03:16:40;;;;;;;6.30;4.93;;;12.80;40.30;;;;;;5002170;28;20187;-73
2023/04/23 03:19:06;;;;;;;5.53;4.93;;;12.70;40.10;;;;;;5013506;28;20205;-73
2023/04/23 03:21:32;;;;;;;6.00;5.40;;;13.60;41.00;;;;;;4997305;28;20218;-73
2023/04/23 03:23:57;;;;;;;5.07;4.57;;;12.60;40.30;;;;;;5013950;28;20354;-71
2023/04/23 03:26:23;;;;;;;6.87;4.67;;;12.70;40.30;;;;;;5020356;28;20206;-71
2023/04/23 03:28:48;;;;;;;11.23;4.90;;;12.70;40.30;;;;;;5029432;28;20233;-71
2023/04/23 03:31:14;;;;;;;6.30;5.23;;;12.70;40.20;;;;;;5021131;28;20209;-71
2023/04/23 03:33:39;;;;;;;6.53;5.33;;;12.80;40.40;;;;;;4994527;28;20178;-71
2023/04/23 03:36:05;;;;;;;7.33;5.00;;;12.80;40.30;;;;;;5011438;28;20628;-71
2023/04/23 03:38:30;;;;;;;8.37;4.73;;;12.90;40.50;;;;;;4994182;28;20229;-71
2023/04/23 03:40:56;;;;;;;6.03;4.80;;;12.70;40.30;;;;;;5013100;28;20230;-70
2023/04/23 03:43:22;;;;;;;6.03;4.90;;;12.60;40.20;;;;;;5001553;28;20231;-71
2023/04/23 03:45:47;;;;;;;5.60;4.67;;;12.60;40.10;;;;;;5014265;28;20202;-71
2023/04/23 03:48:13;;;;;;;5.03;3.93;;;12.60;40.20;;;;;;5001117;28;20256;-71
2023/04/23 03:50:39;;;;;;;7.03;3.37;;;12.30;31.00;;;;;;5018640;28;20245;-71
2023/04/23 03:53:06;;;;;;;5.53;3.87;;;12.30;34.50;;;;;;5019541;28;20277;-71
2023/04/23 03:55:32;;;;;;;4.23;3.70;;;12.30;39.70;;;;;;5019692;28;20434;-71
2023/04/23 03:58:00;;;;;;;4.47;3.77;;;12.30;39.80;;;;;;5010144;28;20433;-71
2023/04/23 04:00:26;;;;;;;4.30;3.67;;;12.30;39.80;;;;;;4996489;28;20571;-71
2023/04/23 04:02:51;;;;;;;6.27;3.53;;;12.30;39.80;;;;;;4999775;28;21208;-71
2023/04/23 04:05:17;;;;;;;4.60;3.43;;;12.30;39.90;;;;;;5004033;28;20213;-71
2023/04/23 04:07:43;;;;;;;5.07;3.80;;;12.30;39.80;;;;;;5003398;28;20178;-71
2023/04/23 04:10:08;;;;;;;4.17;3.73;;;12.30;39.70;;;;;;5015182;28;20237;-71
2023/04/23 04:12:35;;;;;;;4.10;3.60;;;12.30;39.80;;;;;;5017385;28;20486;-70
2023/04/23 04:15:02;;;;;;;4.47;3.50;;;12.20;39.80;;;;;;5014999;28;20182;-71
2023/04/23 04:17:27;;;;;;;3.47;3.17;;;12.20;39.70;;;;;;4992656;28;20437;-71
2023/04/23 04:19:53;;;;;;;4.93;3.60;;;12.20;39.70;;;;;;5020896;28;20999;-71
2023/04/23 04:22:18;;;;;;;3.93;3.30;;;12.10;39.60;;;;;;5001925;28;20506;-71
2023/04/23 04:24:46;;;;;;;3.63;3.27;;;12.10;39.80;;;;;;5005572;28;20239;-71
2023/04/23 04:27:13;;;;;;;4.63;3.50;;;13.10;40.50;;;;;;5015440;28;20210;-71
2023/04/23 04:29:42;;;;;;;5.07;3.87;;;12.10;39.70;;;;;;4996411;28;20548;-71
2023/04/23 04:32:08;;;;;;;5.03;3.50;;;11.70;39.50;;;;;;5009117;28;20484;-70
2023/04/23 04:34:35;;;;;;;4.07;3.63;;;12.20;39.80;;;;;;4992724;28;20449;-71
2023/04/23 04:37:00;;;;;;;5.87;3.70;;;12.20;39.90;;;;;;5016861;28;20445;-70
2023/04/23 04:39:26;;;;;;;5.07;4.10;;;12.20;39.80;;;;;;4992994;28;20453;-70
2023/04/23 04:41:52;;;;;;;6.27;4.37;;;12.20;39.80;;;;;;4998980;28;20400;-71
2023/04/23 04:44:17;;;;;;;5.90;4.60;;;12.80;40.40;;;;;;4992133;28;20214;-71
2023/04/23 04:46:43;;;;;;;6.80;5.10;;;12.10;39.80;;;;;;5011828;28;20499;-71
2023/04/23 04:49:10;;;;;;;6.63;5.03;;;12.10;39.80;;;;;;5004102;28;20632;-71
2023/04/23 04:51:37;;;;;;;7.30;6.03;;;11.60;39.70;;;;;;4991791;28;20552;-71
2023/04/23 04:54:03;;;;;;;7.80;6.20;;;12.20;39.90;;;;;;4992127;28;20926;-71
2023/04/23 04:56:29;;;;;;;9.70;6.27;;;12.20;39.80;;;;;;5000775;28;20496;-71
2023/04/23 04:58:55;;;;;;;8.60;6.40;;;12.20;39.90;;;;;;4993499;28;20628;-71
2023/04/23 05:01:23;;;;;;;12.50;6.60;;;12.20;39.90;;;;;;5021932;28;21074;-71
2023/04/23 05:03:49;;;;;;;9.90;6.63;;;12.20;40.10;;;;;;5015738;28;20205;-71
2023/04/23 05:06:14;;;;;;;7.53;6.43;;;12.20;39.80;;;;;;5013564;28;20838;-70
2023/04/23 05:08:41;;;;;;;9.87;6.97;;;12.30;50.30;;;;;;4990872;28;20216;-71
2023/04/23 05:11:07;;;;;;;8.63;6.87;;;12.40;37.80;;;;;;4991701;28;20221;-71
2023/04/23 05:13:32;;;;;;;9.43;7.20;;;12.40;40.20;;;;;;5010731;28;20444;-69
2023/04/23 05:15:58;;;;;;;9.00;6.43;;;12.40;40.00;;;;;;5015031;28;20623;-71
2023/04/23 05:18:24;;;;;;;9.83;6.70;;;12.70;40.30;;;;;;4995257;28;20256;-71
2023/04/23 05:20:49;;;;;;;9.60;6.73;;;12.60;38.00;;;;;;4990648;28;20266;-71
2023/04/23 05:23:15;;;;;;;8.17;6.97;;;12.50;40.80;;;;;;5000799;28;20265;-70
2023/04/23 05:25:41;;;;;;;8.73;6.80;;;12.60;48.90;;;;;;5011792;28;20506;-71
2023/04/23 05:28:07;;;;;;;9.13;7.10;;;12.60;40.40;;;;;;5012490;28;20197;-71
2023/04/23 05:30:33;;;;;;;12.53;7.50;;;12.60;40.20;;;;;;5021360;28;20216;-71
2023/04/23 05:32:59;;;;;;;9.63;6.90;;;12.60;40.20;;;;;;5010991;28;20520;-71
2023/04/23 05:35:24;;;;;;;11.40;7.10;;;12.60;40.20;;;;;;5010547;28;20216;-71
2023/04/23 05:37:50;;;;;;;10.43;7.40;;;12.60;40.20;;;;;;5008591;28;20190;-71
2023/04/23 05:40:16;;;;;;;11.00;6.80;;;12.70;40.30;;;;;;5007890;28;20216;-70
2023/04/23 05:42:41;;;;;;;13.27;7.80;;;12.70;40.30;;;;;;5016832;28;20711;-71
2023/04/23 05:45:07;;;;;;;9.40;7.50;;;12.80;40.40;;;;;;5000942;28;20190;-71
2023/04/23 05:47:33;;;;;;;10.67;7.03;;;12.80;40.30;;;;;;4993144;28;20294;-71
2023/04/23 05:49:58;;;;;;;8.87;7.07;;;12.90;40.40;;;;;;4992134;28;20543;-71
2023/04/23 05:52:24;;;;;;;10.43;6.97;;;13.00;38.30;;;;;;5019574;28;20632;-71
2023/04/23 05:54:50;;;;;;;8.67;6.67;;;13.10;40.60;;;;;;5017259;28;20266;-71
2023/04/23 05:57:16;;;;;;;7.20;6.33;;;13.20;40.70;;;;;;5015516;28;20206;-71
2023/04/23 05:59:41;;;;;;;8.10;6.40;;;13.40;40.80;;;;;;5001524;28;20448;-71
2023/04/23 06:02:09;;;;;;;6.93;6.20;;;13.30;29.30;;;;;;4996707;28;20201;-70
2023/04/23 06:04:35;;;;;;;8.70;6.27;;;13.30;34.30;;;;;;5022585;28;20273;-71
2023/04/23 06:07:01;;;;;;;9.50;6.80;;;13.30;31.10;;;;;;5018715;28;21140;-71
2023/04/23 06:09:26;;;;;;;8.00;6.20;;;13.30;31.90;;;;;;4994004;28;20879;-71
2023/04/23 06:11:52;;;;;;;8.30;6.47;;;13.20;30.20;;;;;;4997302;28;20949;-71
2023/04/23 06:14:17;;;;;;;7.63;5.63;;;13.20;33.90;;;;;;5001512;28;20189;-70
2023/04/23 06:16:43;;;;;;;7.87;5.50;;;13.20;35.80;;;;;;4995234;28;20278;-70
2023/04/23 06:19:09;;;;;;;9.33;5.60;;;13.20;33.00;;;;;;5014647;28;20209;-71
2023/04/23 06:21:34;;;;;;;9.40;5.97;;;13.30;29.40;;;;;;4993563;28;20688;-71
2023/04/23 06:24:00;;;;;;;7.70;5.80;;;13.40;26.20;;;;;;5015903;28;21582;-71
2023/04/23 06:26:25;;;;;;;6.33;5.27;;;13.40;32.10;;;;;;5015556;28;20206;-71
2023/04/23 06:28:51;;;;;;;6.00;4.70;;;13.60;22.70;;;;;;5012974;28;20229;-71
2023/04/23 06:31:16;;;;;;;7.00;5.60;;;13.60;22.40;;;;;;5001907;28;20198;-71
2023/04/23 06:33:42;;;;;;;5.53;4.50;;;13.60;17.00;;;;;;5013056;28;20214;-71
2023/04/23 06:36:09;;;;;;;5.37;4.87;;;13.80;16.60;;;;;;5003724;28;20213;-71
2023/04/23 06:38:35;;;;;;;7.10;4.30;;;14.10;5.20;;;;;;5012808;28;20439;-69
2023/04/23 06:41:01;;;;;;;7.43;4.90;;;14.30;2.20;;;;;;5016535;28;20213;-71
2023/04/23 06:43:27;;;;;;;5.37;4.40;;;14.40;1.00;;;;;;5002496;28;20186;-69
2023/04/23 06:45:52;;;;;;;10.63;4.73;;;14.40;1.00;;;;;;5019201;28;20341;-71
2023/04/23 06:48:19;;;;;;;5.50;4.80;;;14.50;1.00;;;;;;5002811;28;20188;-69
2023/04/23 06:50:45;;;;;;;6.87;5.30;;;14.90;1.00;;;;;;5012200;28;20244;-69
2023/04/23 06:53:11;;;;;;;7.60;4.87;;;15.00;1.00;;;;;;5021466;28;20942;-69
2023/04/23 06:55:36;;;;;;;5.27;4.53;;;15.30;1.00;;;;;;5018666;28;20189;-69
2023/04/23 06:58:02;;;;;;;5.07;4.57;;;15.50;1.00;;;;;;5002535;28;20178;-69
2023/04/23 07:00:28;;;;;;;7.50;5.60;;;15.50;1.00;;;;;;5025871;28;20183;-69
2023/04/23 07:02:53;;;;;;;5.20;4.70;;;17.20;1.00;;;;;;5017320;28;20198;-70
2023/04/23 07:05:19;;;;;;;6.57;5.40;;;15.70;1.00;;;;;;5012596;28;20205;-70
2023/04/23 07:07:44;;;;;;;6.70;4.97;;;15.80;1.00;;;;;;4997530;28;20692;-70
2023/04/23 07:10:11;;;;;;;7.40;5.70;;;16.10;1.00;;;;;;4994103;28;20684;-70
2023/04/23 07:12:38;;;;;;;6.87;5.73;;;16.10;1.00;;;;;;5012436;28;20190;-69
2023/04/23 07:15:04;;;;;;;7.43;5.60;;;16.40;1.00;;;;;;5012468;28;20460;-68
2023/04/23 07:17:29;;;;;;;7.23;5.30;;;16.20;1.00;;;;;;5011589;28;20430;-70
2023/04/23 07:19:55;;;;;;;6.90;5.60;;;16.50;1.00;;;;;;5005827;28;20499;-71
2023/04/23 07:22:21;;;;;;;8.17;5.50;;;16.80;1.00;;;;;;5012212;28;20206;-70
2023/04/23 07:24:46;;;;;;;5.77;5.17;;;17.10;1.00;;;;;;5010761;28;20198;-72
2023/04/23 07:27:12;;;;;;;6.37;5.63;;;17.00;1.00;;;;;;4992767;28;20629;-71
2023/04/23 07:29:37;;;;;;;6.27;5.60;;;16.60;1.00;;;;;;4994191;28;20181;-71
2023/04/23 07:32:03;;;;;;;5.80;5.30;;;16.60;1.00;;;;;;5015926;28;20533;-71
2023/04/23 07:34:28;;;;;;;6.90;5.23;;;16.80;1.00;;;;;;5010629;28;20261;-70
2023/04/23 07:36:56;;;;;;;5.23;4.67;;;;;;;;;;4993528;28;20233;-71
2023/04/23 07:39:21;;;;;;;5.47;4.83;;;17.10;1.00;;;;;;4993165;28;20194;-71
2023/04/23 07:41:47;;;;;;;6.00;5.20;;;17.60;1.00;;;;;;5018827;28;20441;-70
2023/04/23 07:44:12;;;;;;;5.60;5.10;;;17.90;1.00;;;;;;5010538;28;20191;-70
2023/04/23 07:46:38;;;;;;;5.70;5.10;;;18.30;1.00;;;;;;4997044;28;20734;-71
2023/04/23 07:49:03;;;;;;;7.27;5.00;;;18.90;1.00;;;;;;5019816;28;20273;-71
2023/04/23 07:51:30;;;;;;;5.67;4.33;;;;;;;;;;5013615;28;20217;-71
2023/04/23 07:53:57;;;;;;;5.30;4.67;;;20.30;1.00;;;;;;5014813;28;20178;-71
2023/04/23 07:56:23;;;;;;;5.87;4.50;;;20.80;1.00;;;;;;5014352;28;21016;-71
2023/04/23 07:58:49;;;;;;;6.63;4.40;;;20.80;1.00;;;;;;4993796;28;20447;-71
2023/04/23 08:01:15;;;;;;;7.00;4.03;;;21.60;1.00;;;;;;5021716;28;20456;-71
2023/04/23 08:03:40;;;;;;;5.40;4.20;;;23.50;1.00;;;;;;5009936;28;20260;-72
2023/04/23 08:06:06;;;;;;;4.70;4.07;;;;;;;;;;5003057;28;21026;-72
2023/04/23 08:08:32;;;;;;;6.23;4.27;;;20.60;1.00;;;;;;5022805;28;20180;-72
2023/04/23 08:10:58;;;;;;;5.23;4.20;;;19.40;1.00;;;;;;5005285;28;20221;-71
2023/04/23 08:13:24;;;;;;;5.90;4.10;;;;;;;;;;5018955;28;20193;-71
2023/04/23 08:15:50;;;;;;;7.10;4.40;;;18.30;1.00;;;;;;5024451;28;20682;-71
2023/04/23 08:18:16;;;;;;;5.43;4.23;;;17.80;1.00;;;;;;5004134;28;20189;-71
2023/04/23 08:20:42;;;;;;;5.43;4.03;;;;;;;;;;5000846;28;20576;-71
2023/04/23 08:23:08;;;;;;;6.20;4.20;;;;;;;;;;5010453;28;20186;-71
2023/04/23 08:25:34;;;;;;;5.60;3.90;;;17.80;1.00;;;;;;5023626;28;20418;-71
2023/04/23 08:27:59;;;;;;;4.93;4.00;;;19.30;1.00;;;;;;5007232;28;20443;-71
2023/04/23 08:30:25;;;;;;;4.37;3.97;;;20.60;1.00;;;;;;5021449;28;20182;-71
2023/04/23 08:32:54;;;;;;;4.70;3.73;;;21.60;1.00;;;;;;5026165;28;20690;-71
2023/04/23 08:35:20;;;;;;;5.63;4.23;;;22.80;1.00;;;;;;5001876;28;20544;-71
2023/04/23 08:37:46;;;;;;;4.73;3.63;;;22.90;1.00;;;;;;5030127;28;20432;-71
2023/04/23 08:40:12;;;;;;;7.70;3.70;;;;;;;;;;5021936;28;20458;-72
2023/04/23 08:42:56;;;;;;;4.30;3.20;;;24.60;1.00;;;;;;5002453;28;20582;-72
2023/04/23 08:45:22;;;;;;;4.37;3.30;;;25.20;1.00;;;;;;5018971;28;20921;-72
2023/04/23 08:47:48;;;;;;;4.43;3.07;;;25.90;1.00;;;;;;5016840;28;20206;-72
2023/04/23 08:50:16;;;;;;;4.07;3.20;;;27.00;1.00;;;;;;5008124;28;20177;-71
2023/04/23 08:52:52;;;;;;;7.83;3.40;;;27.10;1.00;;;;;;5021985;28;20204;-72
2023/04/23 08:55:18;;;;;;;3.90;2.95;;;27.00;1.00;;;;;;5029490;28;20184;-72
2023/04/23 08:57:45;;;;;;;7.25;3.33;;;27.40;1.00;;;;;;5003505;28;20682;-72
2023/04/23 09:00:12;;;;;;;4.30;2.80;;;26.80;1.00;;;;;;5013799;28;20644;-72
2023/04/23 09:02:43;;;;;;;6.20;3.10;;;26.50;1.00;;;;;;4991441;28;20211;-72
2023/04/23 09:05:09;;;;;;;4.33;3.00;;;26.40;1.00;;;;;;5011552;28;20268;-72
2023/04/23 09:07:36;;;;;;;4.47;3.30;;;26.50;1.00;;;;;;5022987;28;20205;-72
2023/04/23 09:10:03;;;;;;;4.40;3.23;;;26.40;1.00;;;;;;5022635;28;20169;-72
2023/04/23 09:12:29;;;;;;;5.32;3.70;;;26.90;1.00;;;;;;5010136;28;20202;-72
2023/04/23 09:14:55;;;;;;;4.53;3.20;;;26.70;1.00;;;;;;5023542;28;20688;-72
2023/04/23 09:17:22;;;;;;;4.55;3.40;;;27.10;1.00;;;;;;5020774;28;20185;-72
2023/04/23 09:19:49;;;;;;;4.13;3.00;;;27.90;1.00;;;;;;4998771;28;20213;-72
2023/04/23 09:22:16;;;;;;;4.93;3.30;;;27.30;1.00;;;;;;5008986;28;20213;-71
2023/04/23 09:24:44;;;;;;;4.57;3.30;;;26.20;1.00;;;;;;5015069;28;20243;-72
2023/04/23 09:27:10;;;;;;;4.10;3.13;;;26.80;1.00;;;;;;5010963;28;20209;-72
2023/04/23 09:29:35;;;;;;;5.30;3.70;;;28.20;1.00;;;;;;5008186;28;20261;-72
2023/04/23 09:32:09;;;;;;;6.55;3.67;;;29.10;1.00;;;;;;5021620;28;20667;-72
2023/04/23 09:34:39;;;;;;;5.35;3.92;;;28.50;1.00;;;;;;5011921;28;20599;-72
2023/04/23 09:37:09;;;;;;;4.73;3.80;;;27.80;1.00;;;;;;5015690;28;20667;-72
2023/04/23 09:39:35;;;;;;;8.17;3.60;;;26.60;1.00;;;;;;5013365;28;20196;-72
2023/04/23 09:42:04;;;;;;;4.50;4.10;;;26.30;1.00;;;;;;4999929;28;20206;-72
2023/04/23 09:44:32;;;;;;;5.33;3.63;;;25.80;1.00;;;;;;5002084;28;20289;-72
2023/04/23 09:47:08;;;;;;;5.80;3.90;;;25.90;1.00;;;;;;5010915;28;20201;-72
2023/04/23 09:49:45;;;;;;;4.63;3.57;;;26.20;1.00;;;;;;5009819;28;20192;-72
2023/04/23 09:52:11;;;;;;;4.47;3.60;;;26.40;1.00;;;;;;5013309;28;20202;-73
2023/04/23 09:54:37;;;;;;;4.17;3.30;;;;;;;;;;5016592;28;20247;-72
2023/04/23 09:57:07;;;;;;;4.83;3.27;;;24.90;1.00;;;;;;5011752;28;20193;-72
2023/04/23 09:59:35;;;;;;;5.07;3.33;;;24.10;1.00;;;;;;5017202;28;20466;-72
2023/04/23 10:02:02;;;;;;;6.60;3.70;;;22.90;1.00;;;;;;4992361;28;20538;-72
2023/04/23 10:04:28;;;;;;;5.60;3.30;;;23.20;1.00;;;;;;4994150;28;20451;-72
2023/04/23 10:06:58;;;;;;;6.43;3.03;;;24.80;1.00;;;;;;5009389;28;20472;-72
2023/04/23 10:09:25;;;;;;;4.43;2.90;;;25.40;1.00;;;;;;5013870;28;20190;-72
2023/04/23 10:11:55;;;;;;;5.77;3.20;;;24.90;1.00;;;;;;5013084;28;20501;-72
2023/04/23 10:14:22;;;;;;;4.53;3.13;;;24.10;1.00;;;;;;5012026;28;20495;-72
2023/04/23 10:16:50;;;;;;;5.30;3.27;;;23.40;1.00;;;;;;5015240;28;20531;-72
2023/04/23 10:19:24;;;;;;;5.97;2.87;;;23.30;1.00;;;;;;5011344;28;20538;-71
2023/04/23 10:21:57;;;;;;;5.80;2.63;;;21.70;1.00;;;;;;5012161;28;20482;-72
2023/04/23 10:24:24;;;;;;;4.80;3.00;;;;;;;;;;4992475;28;20498;-72
2023/04/23 10:26:52;;;;;;;5.03;3.17;;;21.90;1.00;;;;;;4995104;28;20556;-72
2023/04/23 10:29:25;;;;;;;4.00;2.90;;;22.10;1.00;;;;;;5013380;28;20421;-72
2023/04/23 10:31:52;;;;;;;11.30;2.97;;;22.10;1.00;;;;;;4996720;28;20514;-72
2023/04/23 10:34:19;;;;;;;4.13;2.90;;;22.20;1.00;;;;;;5017826;28;20831;-72
2023/04/23 10:36:45;;;;;;;6.13;3.20;;;;;;;;;;5008013;28;20495;-72
2023/04/23 10:39:12;;;;;;;4.43;2.63;;;23.20;1.00;;;;;;5019690;28;20783;-71
2023/04/23 10:41:41;;;;;;;3.53;2.63;;;23.60;1.00;;;;;;5017158;28;20236;-71
2023/04/23 10:44:11;;;;;;;3.87;2.90;;;24.60;1.00;;;;;;5013505;28;20483;-72
2023/04/23 10:46:37;;;;;;;4.77;2.70;;;25.80;1.00;;;;;;5011756;28;20464;-72
2023/04/23 10:49:15;;;;;;;3.90;2.83;;;25.40;1.00;;;;;;5018326;28;20416;-72
2023/04/23 10:51:44;;;;;;;4.17;2.50;;;25.80;1.00;;;;;;5016394;28;20193;-72
2023/04/23 10:54:13;;;;;;;4.10;2.50;;;25.80;1.00;;;;;;5021482;28;20433;-72
2023/04/23 10:56:39;;;;;;;3.90;2.50;;;26.20;1.00;;;;;;5010946;28;20444;-71
2023/04/23 10:59:19;;;;;;;5.80;2.60;;;27.20;1.00;;;;;;5017974;28;20519;-72
2023/04/23 11:01:49;;;;;;;3.80;2.27;;;27.50;1.00;;;;;;4997674;28;20207;-72
2023/04/23 11:04:22;;;;;;;4.17;2.67;;;28.10;1.00;;;;;;5021796;28;20264;-72
2023/04/23 11:06:48;;;;;;;4.33;2.67;;;28.60;1.00;;;;;;4993451;28;20209;-72
2023/04/23 11:09:35;;;;;;;3.47;2.50;;;28.70;1.00;;;;;;5023877;28;20488;-72
2023/04/23 11:12:04;;;;;;;4.40;2.50;;;27.10;1.00;;;;;;5013725;28;20204;-72
2023/04/23 11:14:48;;;;;;;3.17;2.20;;;26.30;1.00;;;;;;4998321;28;20185;-72
2023/04/23 11:17:16;;;;;;;3.27;2.60;;;26.00;1.00;;;;;;5010769;28;20190;-72
2023/04/23 11:20:02;;;;;;;3.50;2.60;;;25.40;1.00;;;;;;5010838;28;20575;-71
2023/04/23 11:22:34;;;;;;;4.20;2.70;;;25.20;1.00;;;;;;5018500;28;20543;-72
2023/04/23 11:25:01;;;;;;;3.20;2.40;;;24.80;1.00;;;;;;5006800;28;20441;-72
2023/04/23 11:27:29;;;;;;;3.60;2.60;;;24.80;1.00;;;;;;4994059;28;20563;-73
2023/04/23 11:29:56;;;;;;;4.90;3.00;;;25.10;1.00;;;;;;5006666;28;20432;-76
2023/04/23 11:32:22;;;;;;;3.43;2.57;;;25.30;1.00;;;;;;5012331;28;20445;-74
2023/04/23 11:34:49;;;;;;;4.03;2.63;;;25.30;1.00;;;;;;5011192;28;20431;-73
2023/04/23 11:37:17;;;;;;;3.40;2.67;;;24.80;1.00;;;;;;5000818;28;20575;-73
2023/04/23 11:39:44;;;;;;;4.50;2.67;;;24.70;1.00;;;;;;5018735;28;20429;-74
2023/04/23 11:42:11;;;;;;;4.73;2.70;;;25.50;1.00;;;;;;5000101;28;20449;-74
2023/04/23 11:44:39;;;;;;;4.10;2.73;;;25.40;1.00;;;;;;5020351;28;20432;-73
2023/04/23 11:47:07;;;;;;;5.33;2.80;;;25.40;1.00;;;;;;5015034;28;20550;-73
2023/04/23 11:49:35;;;;;;;4.30;2.73;;;25.20;1.00;;;;;;5018182;28;20425;-73
2023/04/23 11:52:00;;;;;;;4.60;2.53;;;25.90;1.00;;;;;;5017289;28;20836;-74
2023/04/23 11:54:28;;;;;;;3.30;2.20;;;26.90;1.00;;;;;;5000275;28;20433;-73
2023/04/23 11:56:54;;;;;;;4.30;2.90;;;26.90;1.00;;;;;;5009955;28;20233;-73
2023/04/23 11:59:20;;;;;;;5.10;2.70;;;26.50;1.00;;;;;;5010333;28;20421;-73
2023/04/23 12:01:50;;;;;;;6.20;3.53;;;26.40;1.00;;;;;;5003788;28;20819;-72
2023/04/23 12:04:28;;;;;;;3.13;2.30;;;27.20;1.00;;;;;;5006440;28;20650;-73
2023/04/23 12:06:56;;;;;;;7.00;2.70;;;27.30;1.00;;;;;;5007252;28;20297;-72
2023/04/23 12:09:25;;;;;;;4.03;2.43;;;27.20;1.00;;;;;;5000413;28;20213;-72
2023/04/23 12:11:50;;;;;;;2.90;2.30;;;26.70;1.00;;;;;;5016605;28;20854;-73
2023/04/23 12:14:19;;;;;;;4.30;2.47;;;26.30;1.00;;;;;;5017295;28;20198;-72
2023/04/23 12:16:46;;;;;;;5.30;2.23;;;26.70;1.00;;;;;;4999049;28;20182;-72
2023/04/23 12:19:17;;;;;;;3.50;2.23;;;27.40;1.00;;;;;;5019758;28;20186;-74
2023/04/23 12:22:02;;;;;;;3.97;2.30;;;27.70;1.00;;;;;;5018814;28;20575;-71
2023/04/23 12:24:45;;;;;;;5.93;2.50;;;28.40;1.00;;;;;;4999700;28;20231;-73
2023/04/23 12:27:19;;;;;;;4.10;2.30;;;29.20;1.00;;;;;;5013127;28;20198;-73
2023/04/23 12:29:46;;;;;;;2.80;2.00;;;30.20;1.00;;;;;;4997745;28;20181;-72
2023/04/23 12:32:13;;;;;;;2.97;2.10;;;30.70;1.00;;;;;;5020354;28;20675;-72
2023/04/23 12:34:54;;;;;;;3.40;2.20;;;29.40;1.00;;;;;;4994363;28;20647;-73
2023/04/23 12:37:28;;;;;;;3.50;2.30;;;27.60;1.00;;;;;;5013609;28;20277;-72
2023/04/23 12:39:55;;;;;;;3.90;2.40;;;26.50;1.00;;;;;;5010051;28;20190;-72
2023/04/23 12:42:21;;;;;;;3.70;2.33;;;28.50;1.00;;;;;;5000191;28;20210;-74
2023/04/23 12:44:47;;;;;;;3.40;2.30;;;29.80;1.00;;;;;;5010154;28;20671;-74
2023/04/23 12:47:18;;;;;;;3.83;2.42;;;30.20;1.00;;;;;;5011723;28;20204;-73
2023/04/23 12:49:44;;;;;;;4.10;2.55;;;29.20;1.00;;;;;;4993417;28;20236;-72
2023/04/23 12:52:09;;;;;;;3.00;2.13;;;27.60;1.00;;;;;;5013063;28;20323;-74